Time;durP1;ratioP1;P1;durP2;ratioP2;P2;SDS_P1;SDS_P2;PMS_P1;PMS_P2;Temp;Humidity;BMP_temperature;BMP_pressure;BME280_temperature;BME280_humidity;BME280_pressure;Samples;Min_cycle;Max_cycle;Signal;HPM_P1;HPM_P2
2021/04/02 00:02:11;;;;;;;39.13;23.13;;;15.80;87.30;;;;;;5094227;28;20902;-80
2021/04/02 00:04:37;;;;;;;42.20;26.17;;;15.80;87.30;;;;;;5095000;28;20534;-79
2021/04/02 00:07:06;;;;;;;47.87;23.80;;;15.80;87.70;;;;;;5094812;28;20493;-79
2021/04/02 00:09:33;;;;;;;43.97;23.80;;;15.60;88.30;;;;;;5094970;28;20420;-81
2021/04/02 00:11:59;;;;;;;42.13;24.50;;;15.60;88.80;;;;;;5094663;28;20439;-80
2021/04/02 00:14:26;;;;;;;39.57;22.27;;;15.60;88.80;;;;;;5094942;28;20471;-79
2021/04/02 00:16:53;;;;;;;43.80;23.80;;;15.50;89.30;;;;;;5095637;28;20489;-80
2021/04/02 00:19:19;;;;;;;41.10;24.63;;;15.40;90.00;;;;;;5095108;28;20612;-80
2021/04/02 00:21:46;;;;;;;36.70;23.80;;;15.30;90.60;;;;;;5082119;28;20864;-81
2021/04/02 00:24:12;;;;;;;43.27;26.30;;;15.20;90.60;;;;;;5073930;28;20499;-80
2021/04/02 00:26:39;;;;;;;37.57;24.87;;;15.20;90.60;;;;;;5086250;28;20474;-80
2021/04/02 00:29:05;;;;;;;43.57;25.50;;;15.20;90.70;;;;;;5076080;28;20438;-80
2021/04/02 00:31:32;;;;;;;42.53;25.57;;;15.10;90.90;;;;;;5080243;28;20448;-80
2021/04/02 00:34:00;;;;;;;39.50;25.77;;;15.10;91.20;;;;;;5094671;28;21077;-81
2021/04/02 00:36:26;;;;;;;39.63;26.63;;;15.00;91.20;;;;;;5093763;28;20509;-80
2021/04/02 00:38:52;;;;;;;39.63;27.43;;;15.00;91.40;;;;;;5093581;28;20500;-79
2021/04/02 00:41:20;;;;;;;41.00;26.23;;;15.00;91.60;;;;;;5082748;28;20477;-81
2021/04/02 00:43:50;;;;;;;39.90;27.60;;;15.00;91.80;;;;;;5073903;28;20454;-80
2021/04/02 00:46:18;;;;;;;43.63;27.73;;;15.10;91.80;;;;;;5083328;28;20440;-80
2021/04/02 00:48:45;;;;;;;40.90;26.83;;;15.20;91.60;;;;;;5094231;28;20421;-80
2021/04/02 00:51:17;;;;;;;40.93;27.67;;;15.00;91.90;;;;;;5094362;28;20530;-80
2021/04/02 00:53:44;;;;;;;44.27;27.80;;;14.90;92.20;;;;;;5094079;28;20840;-80
2021/04/02 00:56:13;;;;;;;48.03;28.40;;;14.90;92.40;;;;;;5093301;28;20473;-79
2021/04/02 00:58:40;;;;;;;46.03;27.83;;;14.90;92.50;;;;;;5093454;28;20504;-80
2021/04/02 01:01:09;;;;;;;39.43;27.30;;;14.90;92.70;;;;;;5092719;28;20864;-79
2021/04/02 01:03:36;;;;;;;41.60;26.97;;;14.80;92.80;;;;;;5097445;28;20449;-80
2021/04/02 01:06:05;;;;;;;43.30;27.13;;;14.90;92.70;;;;;;5096962;28;20558;-80
2021/04/02 01:08:35;;;;;;;41.40;24.30;;;14.90;92.70;;;;;;5096830;28;20550;-79
2021/04/02 01:11:02;;;;;;;42.27;27.07;;;14.80;93.00;;;;;;5097094;28;20462;-81
2021/04/02 01:13:35;;;;;;;40.30;26.20;;;14.70;93.40;;;;;;5097452;28;20422;-82
2021/04/02 01:16:08;;;;;;;39.73;26.17;;;14.60;93.50;;;;;;5097679;28;20441;-80
2021/04/02 01:18:39;;;;;;;34.70;24.27;;;14.50;93.50;;;;;;5093695;28;20537;-80
2021/04/02 01:21:13;;;;;;;38.50;25.90;;;14.60;93.50;;;;;;5075583;28;20529;-79
2021/04/02 01:23:53;;;;;;;35.57;23.40;;;14.50;93.50;;;;;;5075621;28;20472;-79
2021/04/02 01:26:32;;;;;;;39.87;23.00;;;14.50;93.40;;;;;;5075552;28;20872;-80
2021/04/02 01:29:13;;;;;;;37.50;22.83;;;14.30;93.50;;;;;;5081630;28;20814;-79
2021/04/02 01:31:42;;;;;;;30.50;20.50;;;14.20;93.80;;;;;;5083038;28;20462;-80
2021/04/02 01:34:09;;;;;;;29.90;17.97;;;14.30;93.80;;;;;;5075239;28;20474;-80
2021/04/02 01:36:39;;;;;;;33.00;20.80;;;14.20;93.70;;;;;;5078457;28;20427;-81
2021/04/02 01:39:08;;;;;;;29.30;19.13;;;14.10;94.00;;;;;;5082921;28;20455;-80
2021/04/02 01:41:38;;;;;;;33.37;18.70;;;14.20;93.90;;;;;;5099296;28;20451;-80
2021/04/02 01:44:07;;;;;;;28.90;18.83;;;14.20;93.90;;;;;;5097681;28;20934;-80
2021/04/02 01:46:34;;;;;;;34.80;21.23;;;14.10;94.30;;;;;;5088088;28;20496;-81
2021/04/02 01:49:02;;;;;;;29.73;20.07;;;14.00;94.50;;;;;;5077735;28;20449;-81
2021/04/02 01:51:31;;;;;;;28.37;20.40;;;14.00;94.80;;;;;;5078757;28;20873;-80
2021/04/02 01:54:00;;;;;;;31.13;19.13;;;14.00;94.80;;;;;;5084719;28;20481;-80
2021/04/02 01:56:27;;;;;;;31.60;19.57;;;14.00;94.90;;;;;;5090612;28;20488;-81
2021/04/02 01:58:56;;;;;;;28.77;17.10;;;13.90;95.00;;;;;;5077775;28;20492;-80
2021/04/02 02:01:26;;;;;;;35.53;20.40;;;13.90;95.30;;;;;;5078923;28;20427;-81
2021/04/02 02:03:56;;;;;;;26.40;17.50;;;13.70;95.40;;;;;;5077947;28;20471;-80
2021/04/02 02:06:24;;;;;;;29.73;18.20;;;13.70;95.50;;;;;;5092061;28;20532;-81
2021/04/02 02:08:53;;;;;;;27.83;16.37;;;13.70;95.50;;;;;;5097392;28;20535;-81
2021/04/02 02:11:20;;;;;;;23.40;12.60;;;13.70;95.60;;;;;;5098234;28;20485;-81
2021/04/02 02:14:00;;;;;;;25.07;16.47;;;13.60;95.20;;;;;;5098464;28;20445;-80
2021/04/02 02:16:29;;;;;;;26.83;15.43;;;13.50;95.50;;;;;;5058078;28;20451;-80
2021/04/02 02:18:59;;;;;;;22.50;14.40;;;13.50;95.80;;;;;;5056954;28;20564;-81
2021/04/02 02:21:26;;;;;;;24.17;14.13;;;13.50;95.90;;;;;;5057935;28;20500;-80
2021/04/02 02:23:55;;;;;;;20.40;11.10;;;13.40;95.80;;;;;;5057202;28;20459;-80
2021/04/02 02:26:21;;;;;;;19.93;12.00;;;13.40;95.70;;;;;;5093187;28;20460;-81
2021/04/02 02:28:48;;;;;;;20.03;11.00;;;13.40;95.80;;;;;;5077768;28;21013;-81
2021/04/02 02:31:14;;;;;;;18.93;12.40;;;13.40;95.70;;;;;;5077098;28;20447;-80
2021/04/02 02:33:42;;;;;;;20.43;13.60;;;13.30;95.80;;;;;;5077970;28;20609;-81
2021/04/02 02:36:09;;;;;;;27.43;13.13;;;13.30;95.90;;;;;;5087295;28;20547;-80
2021/04/02 02:38:35;;;;;;;22.03;14.23;;;13.20;96.00;;;;;;5102852;28;20574;-80
2021/04/02 02:41:02;;;;;;;25.13;15.70;;;13.30;96.20;;;;;;5097734;28;20522;-80
2021/04/02 02:43:29;;;;;;;25.20;15.00;;;13.30;96.40;;;;;;5095446;28;20941;-79
2021/04/02 02:45:56;;;;;;;23.93;15.10;;;13.30;96.80;;;;;;5094350;28;20479;-79
2021/04/02 02:48:22;;;;;;;29.57;17.60;;;13.30;96.70;;;;;;5094415;28;21086;-80
2021/04/02 02:50:53;;;;;;;22.67;14.37;;;13.10;96.80;;;;;;5098049;28;20471;-78
2021/04/02 02:53:23;;;;;;;22.00;12.10;;;13.10;96.70;;;;;;5100493;28;20475;-79
2021/04/02 02:55:51;;;;;;;21.30;12.67;;;13.20;96.60;;;;;;5096801;28;20441;-78
2021/04/02 02:58:21;;;;;;;21.03;13.00;;;13.10;96.60;;;;;;5097362;28;20445;-79
2021/04/02 03:00:50;;;;;;;20.50;13.80;;;13.10;97.10;;;;;;5096584;28;20524;-78
2021/04/02 03:03:18;;;;;;;17.40;11.63;;;13.00;96.80;;;;;;5098360;28;20511;-78
2021/04/02 03:05:48;;;;;;;19.33;12.20;;;13.00;96.90;;;;;;5095904;28;20455;-79
2021/04/02 03:08:18;;;;;;;31.60;11.13;;;12.80;97.30;;;;;;5093496;28;20530;-79
2021/04/02 03:10:45;;;;;;;19.13;12.30;;;12.70;97.60;;;;;;5093336;28;20447;-78
2021/04/02 03:13:15;;;;;;;21.00;11.90;;;12.70;98.10;;;;;;5093659;28;20447;-81
2021/04/02 03:15:42;;;;;;;17.47;12.03;;;12.70;98.00;;;;;;5093676;28;20457;-79
2021/04/02 03:18:14;;;;;;;19.90;14.50;;;12.60;98.00;;;;;;5083631;28;20455;-79
2021/04/02 03:20:42;;;;;;;23.03;13.73;;;12.60;98.50;;;;;;5071615;28;20512;-79
2021/04/02 03:23:11;;;;;;;22.20;15.30;;;12.60;98.80;;;;;;5072405;28;21018;-79
2021/04/02 03:25:40;;;;;;;20.13;12.50;;;12.60;99.20;;;;;;5071538;28;20470;-79
2021/04/02 03:28:08;;;;;;;21.20;12.53;;;12.60;98.80;;;;;;5087106;28;20518;-79
2021/04/02 03:30:35;;;;;;;18.30;12.23;;;12.50;98.10;;;;;;5092503;28;20455;-79
2021/04/02 03:33:10;;;;;;;19.27;12.30;;;12.40;98.30;;;;;;5093083;28;20454;-79
2021/04/02 03:35:37;;;;;;;18.70;11.40;;;12.40;98.20;;;;;;5091026;28;20574;-79
2021/04/02 03:38:07;;;;;;;18.60;11.37;;;12.40;97.90;;;;;;5092642;28;20544;-79
2021/04/02 03:40:34;;;;;;;17.50;9.30;;;12.20;98.50;;;;;;5092484;28;20443;-79
2021/04/02 03:43:06;;;;;;;14.60;8.90;;;12.10;97.80;;;;;;5092703;28;20485;-79
2021/04/02 03:45:33;;;;;;;15.70;9.13;;;12.10;97.20;;;;;;5092178;28;20489;-79
2021/04/02 03:48:02;;;;;;;14.30;9.80;;;12.00;97.30;;;;;;5094281;28;20438;-79
2021/04/02 03:50:33;;;;;;;17.70;9.33;;;11.90;97.60;;;;;;5094377;28;20475;-79
2021/04/02 03:53:04;;;;;;;19.90;11.10;;;12.00;98.30;;;;;;5084313;28;20776;-79
2021/04/02 03:55:31;;;;;;;16.63;9.30;;;12.00;97.80;;;;;;5079917;28;20514;-81
2021/04/02 03:58:00;;;;;;;18.40;9.80;;;12.00;97.40;;;;;;5085536;28;20512;-79
2021/04/02 04:00:30;;;;;;;10.87;6.50;;;12.00;97.00;;;;;;5096016;28;20437;-79
2021/04/02 04:02:58;;;;;;;13.93;7.43;;;11.80;95.60;;;;;;5093900;28;20535;-79
2021/04/02 04:05:25;;;;;;;14.30;8.13;;;11.50;96.10;;;;;;5092924;28;20519;-79
2021/04/02 04:07:53;;;;;;;13.13;7.90;;;11.40;96.10;;;;;;5093711;28;20439;-79
2021/04/02 04:10:20;;;;;;;13.03;7.70;;;11.30;96.00;;;;;;5093522;28;20526;-80
2021/04/02 04:12:49;;;;;;;13.20;8.47;;;11.20;95.80;;;;;;5093809;28;20451;-79
2021/04/02 04:15:17;;;;;;;18.10;7.63;;;11.20;95.70;;;;;;5092060;28;20555;-79
2021/04/02 04:17:47;;;;;;;11.50;7.60;;;11.20;95.60;;;;;;5075732;28;20594;-79
2021/04/02 04:20:16;;;;;;;9.73;6.23;;;11.10;95.20;;;;;;5077774;28;20463;-79
2021/04/02 04:22:44;;;;;;;9.67;6.33;;;11.10;94.80;;;;;;5078033;28;20515;-79
2021/04/02 04:25:12;;;;;;;12.30;5.90;;;11.20;94.20;;;;;;5079013;28;20554;-79
2021/04/02 04:27:42;;;;;;;10.77;6.07;;;11.10;93.90;;;;;;5074733;28;20431;-78
2021/04/02 04:30:11;;;;;;;8.63;5.10;;;11.10;93.70;;;;;;5078307;28;20839;-80
2021/04/02 04:32:40;;;;;;;9.57;4.50;;;10.90;93.00;;;;;;5083582;28;20425;-80
2021/04/02 04:35:10;;;;;;;7.80;4.73;;;10.90;93.30;;;;;;5083196;28;20453;-79
2021/04/02 04:37:39;;;;;;;7.83;3.50;;;10.80;93.10;;;;;;5061693;28;20602;-80
2021/04/02 04:40:08;;;;;;;9.20;5.30;;;10.70;93.00;;;;;;5060607;28;20455;-80
2021/04/02 04:42:37;;;;;;;5.03;2.83;;;10.50;92.50;;;;;;5072466;28;20475;-79
2021/04/02 04:45:06;;;;;;;8.30;4.00;;;10.30;92.60;;;;;;5098893;28;20482;-80
2021/04/02 04:47:33;;;;;;;6.47;3.23;;;10.20;92.90;;;;;;5096812;28;20454;-80
2021/04/02 04:49:59;;;;;;;6.60;4.40;;;10.20;92.60;;;;;;5097851;28;20480;-80
2021/04/02 04:52:32;;;;;;;7.60;4.37;;;10.20;92.40;;;;;;5097701;28;20538;-80
2021/04/02 04:55:01;;;;;;;9.70;4.30;;;10.20;92.10;;;;;;5098333;28;20471;-80
2021/04/02 04:57:32;;;;;;;8.60;3.33;;;10.30;92.00;;;;;;5087303;28;20549;-80
2021/04/02 05:00:00;;;;;;;6.77;3.30;;;10.30;91.60;;;;;;5097620;28;20455;-80
2021/04/02 05:02:29;;;;;;;5.67;3.10;;;10.30;91.40;;;;;;5100276;28;20439;-80
2021/04/02 05:04:57;;;;;;;8.90;3.37;;;10.20;91.00;;;;;;5098400;28;20994;-80
2021/04/02 05:07:25;;;;;;;6.53;2.23;;;10.10;91.60;;;;;;5098488;28;20536;-80
2021/04/02 05:09:54;;;;;;;7.10;2.90;;;10.10;91.40;;;;;;5098826;28;20506;-80
2021/04/02 05:12:22;;;;;;;6.63;2.67;;;10.10;91.00;;;;;;5101581;28;20439;-79
2021/04/02 05:14:51;;;;;;;5.57;2.50;;;10.10;91.10;;;;;;5088297;28;20486;-80
2021/04/02 05:17:18;;;;;;;9.50;3.30;;;10.10;90.80;;;;;;5082346;28;20787;-80
2021/04/02 05:19:46;;;;;;;4.60;2.27;;;10.20;90.70;;;;;;5078725;28;20488;-80
2021/04/02 05:22:12;;;;;;;6.13;2.67;;;10.10;90.50;;;;;;5078098;28;20500;-80
2021/04/02 05:24:38;;;;;;;6.73;2.83;;;9.90;91.10;;;;;;5080695;28;20554;-79
2021/04/02 05:27:07;;;;;;;8.57;2.80;;;9.90;91.10;;;;;;5083321;28;20451;-80
2021/04/02 05:29:34;;;;;;;4.40;2.20;;;10.00;90.50;;;;;;5078683;28;20959;-80
2021/04/02 05:32:00;;;;;;;6.17;2.20;;;9.90;91.20;;;;;;5077038;28;20579;-80
2021/04/02 05:34:27;;;;;;;6.07;2.87;;;9.90;91.00;;;;;;5088136;28;20471;-80
2021/04/02 05:36:53;;;;;;;6.00;2.70;;;9.90;91.10;;;;;;5097245;28;20516;-80
2021/04/02 05:39:20;;;;;;;7.00;3.10;;;9.80;91.30;;;;;;5095764;28;20531;-79
2021/04/02 05:41:51;;;;;;;6.43;2.67;;;9.80;91.50;;;;;;5095987;28;20455;-80
2021/04/02 05:44:26;;;;;;;5.13;2.40;;;9.90;91.30;;;;;;5085189;28;20886;-80
2021/04/02 05:46:53;;;;;;;4.40;2.10;;;9.90;91.20;;;;;;5077669;28;20567;-80
2021/04/02 05:49:21;;;;;;;4.20;2.47;;;9.90;91.40;;;;;;5092355;22;20500;-86
2021/04/02 05:51:48;;;;;;;8.07;3.00;;;9.60;92.50;;;;;;5056705;28;20441;-84
2021/04/02 05:54:23;;;;;;;7.47;3.10;;;9.60;92.30;;;;;;5055638;28;20454;-87
2021/04/02 05:56:51;;;;;;;6.50;2.67;;;9.60;92.40;;;;;;5048555;28;20441;-84
2021/04/02 05:59:18;;;;;;;6.90;2.60;;;9.50;92.70;;;;;;5051607;28;20801;-88
2021/04/02 06:01:46;;;;;;;8.93;3.47;;;9.40;93.20;;;;;;5051409;28;20473;-86
2021/04/02 06:04:13;;;;;;;7.30;3.30;;;9.40;93.30;;;;;;5058286;28;20468;-86
2021/04/02 06:06:40;;;;;;;8.40;2.77;;;9.60;93.30;;;;;;5067639;28;21002;-85
2021/04/02 06:09:07;;;;;;;6.57;3.20;;;9.60;93.20;;;;;;5070798;28;20470;-86
2021/04/02 06:11:34;;;;;;;5.50;2.70;;;9.60;93.30;;;;;;5072207;28;20464;-85
2021/04/02 06:14:00;;;;;;;5.57;3.47;;;9.70;93.60;;;;;;5067641;28;20517;-84
2021/04/02 06:16:27;;;;;;;8.13;3.60;;;9.80;93.30;;;;;;5056977;28;20457;-83
2021/04/02 06:19:04;;;;;;;8.10;4.10;;;9.80;93.20;;;;;;5055453;28;20497;-86
2021/04/02 06:21:30;;;;;;;6.63;3.57;;;9.80;93.30;;;;;;5059435;28;20448;-84
2021/04/02 06:23:56;;;;;;;8.50;3.80;;;9.90;93.30;;;;;;5075107;28;20468;-84
2021/04/02 06:26:23;;;;;;;9.73;3.90;;;9.90;93.90;;;;;;5067895;28;20477;-85
2021/04/02 06:28:49;;;;;;;8.10;3.90;;;9.90;93.60;;;;;;5076877;28;20450;-84
2021/04/02 06:31:18;;;;;;;12.80;5.37;;;9.80;93.70;;;;;;5076766;28;20504;-83
2021/04/02 06:33:45;;;;;;;10.37;4.50;;;9.70;94.00;;;;;;5070645;28;20481;-84
2021/04/02 06:36:14;;;;;;;10.47;5.10;;;9.80;94.10;;;;;;5051669;28;20501;-86
2021/04/02 06:38:43;;;;;;;6.70;4.33;;;9.90;94.10;;;;;;5053465;28;20636;-83
2021/04/02 06:41:11;;;;;;;9.23;4.77;;;10.00;93.40;;;;;;5049300;28;20465;-86
2021/04/02 06:43:40;;;;;;;8.80;5.70;;;9.90;94.10;;;;;;5037160;28;20443;-88
2021/04/02 06:46:09;;;;;;;7.47;4.60;;;9.90;94.30;;;;;;5042447;28;20464;-85
2021/04/02 06:48:36;;;;;;;8.83;4.80;;;10.00;93.60;;;;;;5056359;28;20466;-86
2021/04/02 06:51:03;;;;;;;7.40;4.50;;;9.90;94.00;;;;;;5051704;28;20457;-87
2021/04/02 06:53:33;;;;;;;8.87;4.60;;;10.10;93.50;;;;;;5056359;28;20423;-88
2021/04/02 06:56:02;;;;;;;10.93;4.80;;;10.30;93.00;;;;;;5055886;28;20551;-87
2021/04/02 06:58:30;;;;;;;8.50;4.70;;;10.40;93.00;;;;;;5056081;28;21082;-85
2021/04/02 07:01:03;;;;;;;7.70;4.80;;;10.50;92.90;;;;;;5037355;28;20541;-87
2021/04/02 07:03:31;;;;;;;8.33;4.97;;;10.40;93.00;;;;;;5035779;28;20462;-89
2021/04/02 07:05:59;;;;;;;7.10;5.07;;;10.40;93.00;;;;;;5035773;28;20460;-85
2021/04/02 07:08:27;;;;;;;9.13;5.10;;;10.50;92.80;;;;;;5036324;28;20449;-87
2021/04/02 07:10:57;;;;;;;13.47;4.87;;;10.30;93.00;;;;;;5039535;28;20465;-87
2021/04/02 07:13:25;;;;;;;11.40;5.47;;;10.20;93.30;;;;;;5056372;28;20453;-87
2021/04/02 07:15:52;;;;;;;10.17;5.10;;;10.20;93.30;;;;;;5049268;28;20821;-87
2021/04/02 07:18:19;;;;;;;9.70;5.30;;;10.10;93.30;;;;;;5037338;28;20577;-86
2021/04/02 07:20:48;;;;;;;6.60;3.63;;;10.10;93.40;;;;;;5038412;28;20551;-87
2021/04/02 07:23:14;;;;;;;9.47;5.50;;;10.00;93.50;;;;;;5038551;28;20480;-87
2021/04/02 07:25:41;;;;;;;12.40;5.40;;;10.00;93.90;;;;;;5039433;28;20514;-85
2021/04/02 07:28:11;;;;;;;9.17;5.63;;;10.10;93.80;;;;;;5038486;28;20913;-87
2021/04/02 07:30:38;;;;;;;9.17;5.33;;;10.00;93.70;;;;;;5039588;28;20477;-85
2021/04/02 07:33:07;;;;;;;6.00;3.80;;;10.00;93.80;;;;;;5054698;28;20479;-88
2021/04/02 07:35:36;;;;;;;8.90;5.60;;;10.20;93.80;;;;;;5058617;28;20791;-86
2021/04/02 07:38:04;;;;;;;9.83;6.20;;;10.30;93.70;;;;;;5057989;28;20481;-87
2021/04/02 07:40:35;;;;;;;8.50;5.30;;;10.40;93.50;;;;;;5060981;28;20560;-86
2021/04/02 07:43:05;;;;;;;10.80;6.20;;;10.60;93.20;;;;;;5044569;28;20536;-87
2021/04/02 07:45:35;;;;;;;10.70;6.60;;;10.40;93.40;;;;;;5058718;28;20441;-88
2021/04/02 07:48:13;;;;;;;8.07;5.07;;;10.50;93.70;;;;;;5058797;28;20878;-85
2021/04/02 07:50:46;;;;;;;13.13;7.83;;;10.70;93.40;;;;;;5055272;28;20457;-88
2021/04/02 07:53:17;;;;;;;8.30;6.00;;;10.50;93.50;;;;;;5055710;28;20461;-85
2021/04/02 07:55:54;;;;;;;9.97;6.63;;;10.60;93.50;;;;;;5059149;28;20433;-87
2021/04/02 07:58:26;;;;;;;9.57;6.23;;;10.60;93.30;;;;;;5053907;28;20527;-87
2021/04/02 08:00:56;;;;;;;16.03;6.83;;;10.80;93.40;;;;;;5056381;28;20489;-86
2021/04/02 08:03:24;;;;;;;8.27;5.40;;;10.80;92.90;;;;;;5057038;28;20429;-88
2021/04/02 08:06:04;;;;;;;11.20;6.80;;;10.70;93.20;;;;;;5056085;28;20536;-87
2021/04/02 08:08:41;;;;;;;10.20;6.00;;;10.80;93.20;;;;;;5055173;28;20880;-87
2021/04/02 08:11:09;;;;;;;11.20;6.57;;;10.90;92.80;;;;;;5057921;28;20949;-88
2021/04/02 08:13:51;;;;;;;9.23;6.17;;;10.90;93.00;;;;;;5066276;28;20437;-84
2021/04/02 08:16:40;;;;;;;10.77;6.23;;;11.00;93.10;;;;;;5076193;28;20444;-85
2021/04/02 08:19:10;;;;;;;12.70;7.40;;;11.00;92.90;;;;;;5049945;28;20499;-87
2021/04/02 08:21:38;;;;;;;11.13;6.77;;;10.90;93.10;;;;;;5066305;28;20519;-86
2021/04/02 08:24:06;;;;;;;11.83;7.30;;;10.90;93.30;;;;;;5065052;28;20460;-87
2021/04/02 08:26:34;;;;;;;13.27;8.20;;;10.80;93.30;;;;;;5060536;28;20544;-87
2021/04/02 08:29:01;;;;;;;9.70;6.73;;;10.70;93.60;;;;;;5059380;28;20447;-85
2021/04/02 08:31:28;;;;;;;14.73;8.17;;;10.70;93.70;;;;;;5061555;28;20837;-89
2021/04/02 08:33:56;;;;;;;16.33;6.80;;;10.80;93.80;;;;;;5059427;28;20445;-84
2021/04/02 08:36:24;;;;;;;9.73;7.07;;;11.00;93.40;;;;;;5062803;28;20427;-84
2021/04/02 08:38:51;;;;;;;10.57;7.30;;;10.90;93.40;;;;;;5054814;28;20966;-88
2021/04/02 08:41:19;;;;;;;10.17;7.40;;;11.00;93.60;;;;;;5061348;28;20429;-86
2021/04/02 08:43:45;;;;;;;10.60;6.50;;;11.20;93.30;;;;;;5060291;28;20514;-88
2021/04/02 08:46:14;;;;;;;8.10;6.00;;;11.10;93.10;;;;;;5060996;28;20480;-86
2021/04/02 08:48:50;;;;;;;11.17;7.13;;;11.10;93.20;;;;;;5060201;28;20539;-85
2021/04/02 08:51:21;;;;;;;11.87;8.17;;;11.10;93.40;;;;;;5039977;28;20555;-87
2021/04/02 08:53:48;;;;;;;9.63;6.43;;;11.20;93.20;;;;;;5039764;28;20408;-86
2021/04/02 08:56:19;;;;;;;14.80;9.27;;;11.30;93.10;;;;;;5040907;28;20825;-87
2021/04/02 08:58:47;;;;;;;12.40;8.90;;;11.10;93.50;;;;;;5040675;28;20556;-86
2021/04/02 09:01:16;;;;;;;10.90;8.20;;;11.40;93.50;;;;;;5040025;28;20432;-85
2021/04/02 09:03:43;;;;;;;10.43;5.97;;;11.50;93.10;;;;;;5039480;28;20517;-86
2021/04/02 09:06:13;;;;;;;11.63;8.97;;;11.30;93.00;;;;;;5041585;28;20637;-86
2021/04/02 09:08:40;;;;;;;13.07;8.00;;;11.50;93.40;;;;;;5054683;28;20511;-89
2021/04/02 09:11:10;;;;;;;14.33;9.10;;;11.60;92.90;;;;;;5062202;28;20512;-87
2021/04/02 09:13:39;;;;;;;12.50;8.27;;;11.40;93.00;;;;;;5065396;28;20469;-87
2021/04/02 09:16:08;;;;;;;12.70;8.50;;;11.60;93.10;;;;;;5059612;28;20509;-86
2021/04/02 09:18:45;;;;;;;13.17;9.47;;;11.80;92.50;;;;;;5061907;28;20501;-86
2021/04/02 09:21:12;;;;;;;12.50;9.20;;;11.90;92.50;;;;;;5057666;28;20476;-87
2021/04/02 09:23:40;;;;;;;13.97;8.90;;;12.00;92.60;;;;;;5062288;28;20507;-86
2021/04/02 09:26:08;;;;;;;18.67;9.83;;;12.30;91.90;;;;;;5065227;28;20468;-86
2021/04/02 09:28:37;;;;;;;19.30;10.43;;;12.40;91.40;;;;;;5070383;28;20457;-85
2021/04/02 09:31:22;;;;;;;16.00;9.90;;;12.30;91.50;;;;;;5070253;28;20479;-85
2021/04/02 09:33:50;;;;;;;10.97;7.40;;;12.30;91.60;;;;;;5070204;28;20449;-87
2021/04/02 09:36:18;;;;;;;11.77;8.67;;;12.40;91.40;;;;;;5063626;28;20455;-86
2021/04/02 09:38:47;;;;;;;12.10;8.77;;;12.40;91.40;;;;;;5069067;28;20473;-86
2021/04/02 09:41:20;;;;;;;11.90;9.40;;;12.70;91.00;;;;;;5066789;28;20432;-85
2021/04/02 09:43:49;;;;;;;11.63;7.27;;;12.70;91.00;;;;;;5049627;28;20431;-87
2021/04/02 09:46:30;;;;;;;11.30;8.60;;;12.80;90.30;;;;;;5053127;28;20469;-85
2021/04/02 09:49:05;;;;;;;11.07;8.03;;;12.80;90.60;;;;;;5056844;28;20477;-84
2021/04/02 09:51:33;;;;;;;12.40;8.77;;;12.80;90.60;;;;;;5072747;28;20459;-85
2021/04/02 09:54:01;;;;;;;14.97;8.10;;;12.70;90.70;;;;;;5060499;28;20546;-86
2021/04/02 09:56:28;;;;;;;10.20;8.10;;;12.80;90.70;;;;;;5044631;28;20496;-86
2021/04/02 09:58:55;;;;;;;11.33;7.43;;;12.70;89.40;;;;;;5062527;28;20544;-87
2021/04/02 10:01:21;;;;;;;13.13;9.00;;;12.60;90.40;;;;;;5072640;28;20457;-88
2021/04/02 10:03:48;;;;;;;12.90;8.20;;;12.70;90.30;;;;;;5077070;28;20441;-86
2021/04/02 10:06:14;;;;;;;10.90;7.23;;;12.60;88.00;;;;;;5076540;28;20461;-86
2021/04/02 10:08:43;;;;;;;11.57;9.67;;;12.20;89.90;;;;;;5078522;28;20465;-85
2021/04/02 10:11:11;;;;;;;12.13;9.10;;;12.10;90.90;;;;;;5078209;28;20455;-86
2021/04/02 10:13:37;;;;;;;18.77;9.47;;;12.40;91.30;;;;;;5076776;28;20433;-85
2021/04/02 10:16:04;;;;;;;11.43;7.90;;;12.70;90.20;;;;;;5065050;28;20866;-86
2021/04/02 10:18:31;;;;;;;12.07;9.30;;;12.80;88.20;;;;;;5064099;28;20481;-85
2021/04/02 10:20:58;;;;;;;11.17;7.80;;;12.40;87.00;;;;;;5063386;28;20422;-85
2021/04/02 10:23:24;;;;;;;15.00;9.00;;;12.50;87.50;;;;;;5059783;28;20973;-87
2021/04/02 10:25:51;;;;;;;10.77;8.37;;;12.60;88.00;;;;;;5059889;28;20480;-86
2021/04/02 10:28:18;;;;;;;12.67;10.40;;;12.90;87.60;;;;;;5057911;28;20457;-87
2021/04/02 10:30:45;;;;;;;11.43;7.93;;;13.10;87.30;;;;;;5038476;28;20519;-86
2021/04/02 10:33:11;;;;;;;11.50;8.27;;;13.30;87.00;;;;;;5038316;28;20998;-86
2021/04/02 10:35:38;;;;;;;13.23;8.60;;;13.20;86.30;;;;;;5037611;28;20413;-84
2021/04/02 10:38:04;;;;;;;10.07;7.20;;;13.00;86.70;;;;;;5051161;28;20460;-86
2021/04/02 10:40:33;;;;;;;13.93;8.17;;;12.90;86.20;;;;;;5058195;28;20499;-87
2021/04/02 10:43:00;;;;;;;12.30;9.17;;;12.70;87.00;;;;;;5057548;28;20560;-86
2021/04/02 10:45:29;;;;;;;13.27;9.53;;;12.70;88.00;;;;;;5054044;28;20516;-84
2021/04/02 10:47:56;;;;;;;12.90;8.73;;;12.50;88.70;;;;;;5037344;28;21004;-87
2021/04/02 10:50:23;;;;;;;12.77;9.30;;;12.70;88.20;;;;;;5037993;28;20699;-87
2021/04/02 10:52:49;;;;;;;11.40;7.73;;;12.90;87.60;;;;;;5055092;28;20477;-86
2021/04/02 10:55:16;;;;;;;12.60;8.90;;;12.90;84.80;;;;;;5062137;28;20438;-86
2021/04/02 10:57:42;;;;;;;10.80;7.10;;;12.90;84.10;;;;;;5062688;28;20483;-85
2021/04/02 11:00:12;;;;;;;11.80;8.70;;;12.90;83.80;;;;;;5059772;28;20492;-87
2021/04/02 11:02:39;;;;;;;13.30;9.87;;;12.80;84.40;;;;;;5057481;28;20457;-84
2021/04/02 11:05:07;;;;;;;12.07;7.77;;;12.90;85.80;;;;;;5062035;28;20500;-85
2021/04/02 11:07:34;;;;;;;11.70;8.20;;;13.00;84.60;;;;;;5061930;28;20441;-88
2021/04/02 11:10:00;;;;;;;10.90;8.63;;;13.00;83.20;;;;;;5057396;28;21024;-87
2021/04/02 11:12:42;;;;;;;10.40;6.87;;;13.00;82.10;;;;;;5058674;28;20501;-85
2021/04/02 11:15:12;;;;;;;10.10;8.20;;;13.10;82.20;;;;;;5061956;28;20998;-86
2021/04/02 11:17:42;;;;;;;10.40;8.53;;;13.30;81.50;;;;;;5061906;28;20814;-86
2021/04/02 11:20:30;;;;;;;11.50;8.53;;;13.40;80.70;;;;;;5042885;28;20465;-85
2021/04/02 11:22:57;;;;;;;9.73;5.30;;;13.20;80.10;;;;;;5057599;28;20412;-87
2021/04/02 11:25:24;;;;;;;7.77;5.07;;;13.20;80.20;;;;;;5057582;28;20975;-86
2021/04/02 11:27:51;;;;;;;7.00;5.10;;;13.10;80.30;;;;;;5058314;28;20442;-83
2021/04/02 11:30:20;;;;;;;13.73;7.90;;;12.80;80.30;;;;;;5055912;28;20924;-87
2021/04/02 11:33:05;;;;;;;7.77;5.30;;;13.10;81.00;;;;;;5056777;28;20463;-85
2021/04/02 11:35:33;;;;;;;9.37;7.40;;;13.00;78.90;;;;;;5054141;28;20458;-86
2021/04/02 11:37:59;;;;;;;7.83;6.43;;;13.20;78.70;;;;;;5056146;28;20427;-85
2021/04/02 11:40:31;;;;;;;9.07;7.33;;;12.90;81.60;;;;;;5057798;28;20473;-88
2021/04/02 11:42:57;;;;;;;10.57;6.80;;;13.00;82.40;;;;;;5058219;28;20448;-87
2021/04/02 11:45:24;;;;;;;9.23;7.70;;;13.00;81.50;;;;;;5056889;28;20428;-88
2021/04/02 11:47:50;;;;;;;9.13;7.53;;;13.10;81.50;;;;;;5056019;28;20431;-87
2021/04/02 11:50:18;;;;;;;9.03;7.00;;;13.30;80.00;;;;;;5058019;28;20492;-86
2021/04/02 11:52:45;;;;;;;9.03;7.23;;;13.60;80.00;;;;;;5053273;28;20453;-88
2021/04/02 11:55:13;;;;;;;8.80;7.17;;;13.80;77.40;;;;;;5058929;28;20436;-87
2021/04/02 11:57:39;;;;;;;8.20;6.10;;;13.80;77.30;;;;;;5060830;28;20600;-85
2021/04/02 12:00:08;;;;;;;8.60;6.63;;;13.60;79.10;;;;;;5061318;28;20554;-86
2021/04/02 12:02:35;;;;;;;9.03;4.43;;;13.30;79.90;;;;;;5062573;28;20480;-82
2021/04/02 12:05:01;;;;;;;7.93;5.90;;;13.20;80.10;;;;;;5069596;28;20544;-82
2021/04/02 12:07:28;;;;;;;8.20;6.20;;;13.00;80.10;;;;;;5070679;28;20456;-86
2021/04/02 12:09:55;;;;;;;9.00;6.23;;;13.20;80.40;;;;;;5065488;28;20530;-84
2021/04/02 12:12:21;;;;;;;8.37;6.33;;;13.20;79.00;;;;;;5059330;28;21030;-86
2021/04/02 12:14:47;;;;;;;10.37;6.43;;;13.40;79.30;;;;;;5058455;28;20514;-87
2021/04/02 12:17:14;;;;;;;8.13;5.70;;;13.60;77.20;;;;;;5059138;28;20460;-87
2021/04/02 12:19:40;;;;;;;7.90;5.63;;;13.60;75.40;;;;;;5058831;28;20516;-85
2021/04/02 12:22:07;;;;;;;8.47;6.50;;;13.40;74.20;;;;;;5063090;28;20452;-86
2021/04/02 12:24:36;;;;;;;9.40;6.33;;;13.40;75.10;;;;;;5059767;28;20472;-86
2021/04/02 12:27:02;;;;;;;10.50;5.20;;;13.50;74.60;;;;;;5062138;28;20453;-87
2021/04/02 12:29:29;;;;;;;9.90;6.87;;;13.40;75.00;;;;;;5063552;28;20469;-88
2021/04/02 12:31:55;;;;;;;8.43;6.43;;;13.40;75.90;;;;;;5061628;28;20523;-88
2021/04/02 12:34:21;;;;;;;7.50;5.67;;;13.50;75.30;;;;;;5061095;28;20520;-88
2021/04/02 12:36:48;;;;;;;8.03;6.33;;;13.30;75.20;;;;;;5060839;28;20698;-88
2021/04/02 12:39:14;;;;;;;8.17;6.40;;;13.30;75.00;;;;;;5058203;28;20464;-84
2021/04/02 12:41:41;;;;;;;5.40;3.90;;;13.40;74.80;;;;;;5056900;28;20889;-85
2021/04/02 12:44:08;;;;;;;6.77;5.77;;;13.50;74.10;;;;;;5061289;28;20532;-88
2021/04/02 12:46:35;;;;;;;8.30;5.30;;;13.60;73.40;;;;;;5059914;28;20548;-88